createdAt,value
2023-03-10T00:00:06.176Z,4.67
2023-03-10T00:02:35.376Z,4.27
2023-03-10T00:05:03.768Z,3.77
2023-03-10T00:07:32.875Z,4.50
2023-03-10T00:10:00.690Z,4.00
2023-03-10T00:12:28.784Z,4.43
2023-03-10T00:14:57.662Z,4.20
2023-03-10T00:17:25.385Z,4.10
2023-03-10T00:19:53.027Z,4.30
2023-03-10T00:22:20.773Z,4.63
2023-03-10T00:24:49.834Z,4.40
2023-03-10T00:27:17.983Z,4.83
2023-03-10T00:29:46.099Z,4.20
2023-03-10T00:32:14.204Z,4.20
2023-03-10T00:34:42.194Z,3.63
2023-03-10T00:40:09.542Z,3.60
2023-03-10T00:42:37.317Z,4.23
2023-03-10T00:45:05.360Z,3.90
2023-03-10T00:47:33.653Z,4.13
2023-03-10T00:50:01.427Z,3.60
2023-03-10T00:52:32.527Z,3.77
2023-03-10T00:55:00.383Z,3.80
2023-03-10T00:57:29.526Z,3.57
2023-03-10T00:59:57.133Z,3.10
2023-03-10T01:02:25.028Z,4.10
2023-03-10T01:04:53.183Z,3.67
2023-03-10T01:07:20.979Z,4.13
2023-03-10T01:09:49.393Z,4.00
2023-03-10T01:12:17.079Z,3.10
2023-03-10T01:14:46.649Z,3.97
2023-03-10T01:17:14.520Z,3.60
2023-03-10T01:19:42.468Z,3.37
2023-03-10T01:22:10.548Z,3.10
2023-03-10T01:24:38.285Z,3.83
2023-03-10T01:27:06.249Z,3.77
2023-03-10T01:29:34.208Z,5.23
2023-03-10T01:32:03.508Z,3.83
2023-03-10T01:34:31.302Z,4.00
2023-03-10T01:36:59.101Z,3.23
2023-03-10T01:39:27.171Z,3.50
2023-03-10T01:41:55.047Z,3.87
2023-03-10T01:44:22.977Z,3.53
2023-03-10T01:46:51.481Z,3.80
2023-03-10T01:49:23.345Z,3.23
2023-03-10T01:51:53.517Z,4.07
2023-03-10T01:54:23.864Z,4.17
2023-03-10T01:56:52.100Z,4.33
2023-03-10T01:59:20.937Z,4.03
2023-03-10T02:01:49.707Z,3.60
2023-03-10T02:04:19.197Z,3.87
2023-03-10T02:06:49.017Z,2.80
2023-03-10T02:09:18.426Z,4.20
2023-03-10T02:11:46.457Z,3.10
2023-03-10T02:14:14.461Z,3.20
2023-03-10T02:16:42.923Z,3.50
2023-03-10T02:19:13.744Z,3.50
2023-03-10T02:21:45.188Z,3.60
2023-03-10T02:24:20.035Z,3.80
2023-03-10T02:26:51.505Z,3.87
2023-03-10T02:29:23.873Z,3.40
2023-03-10T02:31:56.373Z,2.93
2023-03-10T02:34:24.528Z,3.33
2023-03-10T02:36:52.252Z,3.73
2023-03-10T02:39:20.350Z,3.13
2023-03-10T02:41:48.108Z,3.03
2023-03-10T02:44:18.138Z,3.57
2023-03-10T02:46:47.716Z,3.00
2023-03-10T02:49:15.606Z,3.13
2023-03-10T02:51:44.391Z,3.40
2023-03-10T02:54:12.499Z,3.60
2023-03-10T02:56:40.983Z,3.00
2023-03-10T02:59:08.741Z,3.10
2023-03-10T03:01:36.991Z,2.30
2023-03-10T03:04:06.239Z,2.10
2023-03-10T03:06:34.265Z,2.77
2023-03-10T03:09:02.419Z,2.87
2023-03-10T03:11:30.229Z,2.17
2023-03-10T03:13:57.881Z,2.10
2023-03-10T03:16:25.851Z,2.10
2023-03-10T03:18:53.930Z,2.70
2023-03-10T03:21:22.988Z,2.37
2023-03-10T03:23:50.688Z,2.57
2023-03-10T03:26:19.736Z,2.70
2023-03-10T03:28:47.497Z,3.20
2023-03-10T03:31:16.501Z,2.63
2023-03-10T03:33:44.271Z,2.30
2023-03-10T03:36:12.275Z,2.77
2023-03-10T03:38:41.966Z,2.50
2023-03-10T03:41:10.534Z,2.23
2023-03-10T03:43:38.471Z,2.10
2023-03-10T03:46:06.453Z,2.40
2023-03-10T03:48:34.958Z,2.20
2023-03-10T03:51:03.552Z,2.90
2023-03-10T03:53:31.474Z,2.77
2023-03-10T03:56:00.539Z,2.40
2023-03-10T03:58:28.757Z,2.60
2023-03-10T04:00:56.922Z,2.33
2023-03-10T04:03:24.696Z,2.50
2023-03-10T04:05:52.819Z,2.60
2023-03-10T04:08:20.831Z,2.50
2023-03-10T04:10:51.461Z,2.30
2023-03-10T04:13:20.588Z,2.40
2023-03-10T04:15:48.446Z,2.73
2023-03-10T04:18:18.462Z,2.87
2023-03-10T04:20:46.526Z,3.80
2023-03-10T04:23:15.704Z,3.03
2023-03-10T04:25:44.039Z,4.50
2023-03-10T04:28:12.573Z,6.20
2023-03-10T04:30:44.420Z,5.83
2023-03-10T04:33:12.364Z,6.67
2023-03-10T04:35:41.025Z,8.00
2023-03-10T04:38:08.879Z,7.23
2023-03-10T04:40:36.975Z,7.90
2023-03-10T04:43:05.011Z,9.60
2023-03-10T04:45:32.856Z,9.70
2023-03-10T04:48:02.274Z,10.33
2023-03-10T04:50:30.259Z,11.70
2023-03-10T04:52:57.974Z,9.67
2023-03-10T04:55:25.957Z,10.43
2023-03-10T04:57:53.961Z,11.17
2023-03-10T05:00:22.288Z,10.80
2023-03-10T05:02:50.112Z,7.37
2023-03-10T05:05:19.268Z,7.97
2023-03-10T05:07:46.917Z,10.73
2023-03-10T05:10:14.865Z,12.37
2023-03-10T05:12:43.247Z,12.03
2023-03-10T05:15:11.753Z,9.43
2023-03-10T05:17:39.546Z,9.70
2023-03-10T05:20:11.557Z,9.37
2023-03-10T05:22:40.832Z,8.27
2023-03-10T05:25:09.838Z,7.03
2023-03-10T05:27:38.229Z,6.37
2023-03-10T05:30:07.330Z,6.07
2023-03-10T05:32:35.954Z,5.47
2023-03-10T05:35:03.941Z,5.33
2023-03-10T05:37:31.997Z,6.00
2023-03-10T05:40:01.185Z,5.57
2023-03-10T05:42:28.939Z,6.43
2023-03-10T05:44:57.149Z,6.10
2023-03-10T05:47:24.949Z,4.73
2023-03-10T05:49:52.784Z,4.43
2023-03-10T05:52:20.537Z,4.40
2023-03-10T05:54:50.578Z,4.40
2023-03-10T05:57:19.731Z,5.40
2023-03-10T05:59:47.585Z,5.10
2023-03-10T06:02:15.671Z,4.53
2023-03-10T06:04:43.462Z,4.10
2023-03-10T06:07:11.169Z,3.13
2023-03-10T06:09:38.863Z,3.90
2023-03-10T06:12:06.869Z,3.20
2023-03-10T06:14:36.119Z,3.63
2023-03-10T06:17:04.137Z,3.50
2023-03-10T06:19:32.134Z,4.43
2023-03-10T06:22:02.425Z,4.73
2023-03-10T06:24:30.863Z,4.90
2023-03-10T06:26:58.835Z,4.83
2023-03-10T06:29:26.554Z,4.10
2023-03-10T06:31:55.812Z,4.27
2023-03-10T06:34:23.536Z,3.83
2023-03-10T06:36:51.335Z,2.97
2023-03-10T06:39:19.061Z,3.60
2023-03-10T06:41:47.185Z,2.90
2023-03-10T06:44:19.158Z,3.60
2023-03-10T06:46:47.251Z,4.63
2023-03-10T06:49:16.488Z,5.10
2023-03-10T06:51:44.244Z,4.83
2023-03-10T06:54:12.157Z,6.27
2023-03-10T06:56:40.216Z,3.63
2023-03-10T06:59:08.080Z,3.80
2023-03-10T07:01:36.014Z,4.50
2023-03-10T07:04:04.189Z,3.70
2023-03-10T07:06:33.752Z,3.50
2023-03-10T07:09:01.926Z,3.67
2023-03-10T07:11:30.109Z,3.63
2023-03-10T07:13:58.072Z,3.20
2023-03-10T07:16:26.518Z,3.00
2023-03-10T07:18:54.506Z,3.40
2023-03-10T07:21:22.652Z,3.17
2023-03-10T07:23:52.318Z,4.80
2023-03-10T07:26:20.518Z,6.80
2023-03-10T07:28:48.655Z,5.83
2023-03-10T07:31:17.045Z,4.93
2023-03-10T07:33:45.188Z,10.33
2023-03-10T07:36:14.818Z,7.70
2023-03-10T07:38:42.942Z,4.50
2023-03-10T07:41:13.340Z,2.67
2023-03-10T07:43:41.194Z,4.10
2023-03-10T07:46:10.551Z,4.90
2023-03-10T07:48:38.454Z,8.10
2023-03-10T07:51:06.972Z,5.60
2023-03-10T07:53:34.702Z,6.60
2023-03-10T07:56:05.404Z,7.53
2023-03-10T07:58:35.516Z,6.40
2023-03-10T08:01:04.489Z,5.13
2023-03-10T08:03:34.107Z,6.00
2023-03-10T08:06:02.681Z,4.73
2023-03-10T08:08:30.589Z,6.50
2023-03-10T08:11:02.051Z,4.77
2023-03-10T08:13:30.029Z,4.80
2023-03-10T08:16:01.394Z,4.57
2023-03-10T08:18:29.562Z,4.37
2023-03-10T08:20:58.217Z,4.17
2023-03-10T08:23:26.881Z,4.80
2023-03-10T08:25:54.798Z,5.00
2023-03-10T08:28:22.476Z,6.20
2023-03-10T08:31:03.697Z,6.20
2023-03-10T08:33:34.509Z,5.27
2023-03-10T08:36:03.380Z,5.53
2023-03-10T08:38:31.548Z,5.03
2023-03-10T08:40:59.324Z,5.87
2023-03-10T08:43:27.130Z,4.60
2023-03-10T08:45:54.775Z,4.73
2023-03-10T08:48:22.380Z,5.13
2023-03-10T08:50:51.618Z,4.60
2023-03-10T08:53:19.632Z,5.07
2023-03-10T08:55:47.298Z,4.37
2023-03-10T08:58:15.241Z,3.87
2023-03-10T09:00:43.517Z,4.00
2023-03-10T09:03:13.779Z,5.73
2023-03-10T09:05:43.395Z,4.40
2023-03-10T09:08:13.222Z,3.97
2023-03-10T09:10:42.207Z,4.23
2023-03-10T09:13:14.000Z,4.40
2023-03-10T09:15:42.558Z,4.30
2023-03-10T09:18:11.790Z,5.33
2023-03-10T09:20:41.117Z,5.33
2023-03-10T09:23:09.378Z,4.77
2023-03-10T09:25:40.563Z,5.97
2023-03-10T09:28:08.649Z,5.27
2023-03-10T09:30:37.456Z,5.53
2023-03-10T09:33:05.571Z,4.90
2023-03-10T09:35:33.409Z,5.17
2023-03-10T09:38:02.000Z,5.13
2023-03-10T09:40:30.120Z,4.60
2023-03-10T09:42:59.817Z,4.07
2023-03-10T09:45:33.138Z,5.23
2023-03-10T09:48:06.214Z,4.57
2023-03-10T09:50:36.274Z,4.17
2023-03-10T09:53:08.641Z,3.83
2023-03-10T09:55:42.441Z,4.00
2023-03-10T09:58:18.992Z,3.93
2023-03-10T10:00:46.927Z,4.57
2023-03-10T10:03:18.198Z,4.23
2023-03-10T10:05:46.885Z,3.87
2023-03-10T10:08:19.684Z,4.37
2023-03-10T10:10:49.953Z,4.10
2023-03-10T10:13:19.298Z,4.33
2023-03-10T10:15:51.268Z,4.27
2023-03-10T10:18:25.846Z,5.20
2023-03-10T10:20:59.210Z,3.37
2023-03-10T10:23:31.842Z,4.33
2023-03-10T10:26:02.807Z,3.87
2023-03-10T10:28:35.113Z,4.53
2023-03-10T10:31:14.197Z,5.57
2023-03-10T10:33:56.815Z,6.33
2023-03-10T10:36:25.144Z,8.23
2023-03-10T10:38:54.189Z,9.43
2023-03-10T10:41:23.450Z,7.40
2023-03-10T10:43:53.346Z,7.77
2023-03-10T10:46:26.053Z,7.30
2023-03-10T10:49:02.478Z,8.07
2023-03-10T10:51:30.893Z,7.97
2023-03-10T10:53:59.198Z,8.10
2023-03-10T10:56:30.125Z,6.03
2023-03-10T10:59:12.751Z,5.90
2023-03-10T11:01:52.928Z,5.50
2023-03-10T11:04:21.468Z,5.53
2023-03-10T11:06:50.154Z,4.53
2023-03-10T11:09:19.340Z,4.13
2023-03-10T11:11:54.599Z,5.30
2023-03-10T11:14:30.139Z,6.60
2023-03-10T11:17:02.676Z,5.97
2023-03-10T11:19:33.254Z,5.97
2023-03-10T11:22:04.974Z,4.20
2023-03-10T11:24:35.680Z,3.70
2023-03-10T11:27:10.025Z,4.13
2023-03-10T11:29:48.899Z,4.47
2023-03-10T11:32:22.227Z,4.10
2023-03-10T11:34:52.058Z,3.70
2023-03-10T11:37:24.641Z,4.10
2023-03-10T11:39:55.774Z,3.97
2023-03-10T11:42:29.093Z,3.10
2023-03-10T11:45:04.578Z,2.97
2023-03-10T11:47:42.076Z,2.90
2023-03-10T11:50:16.295Z,1.80
2023-03-10T11:52:45.510Z,2.13
2023-03-10T11:55:18.764Z,1.93
2023-03-10T11:57:48.706Z,1.50
2023-03-10T12:00:21.369Z,1.87
2023-03-10T12:02:57.606Z,1.50
2023-03-10T12:05:27.361Z,1.57
2023-03-10T12:07:56.532Z,1.73
2023-03-10T12:10:25.796Z,1.70
2023-03-10T12:12:54.599Z,2.00
2023-03-10T12:15:23.773Z,1.63
2023-03-10T12:17:54.360Z,1.10
2023-03-10T12:20:26.484Z,1.17
2023-03-10T12:22:54.800Z,1.30
2023-03-10T12:25:41.562Z,1.50
2023-03-10T12:28:13.239Z,1.23
2023-03-10T12:30:48.058Z,1.67
2023-03-10T12:33:35.021Z,1.57
2023-03-10T12:36:05.336Z,1.80
2023-03-10T12:38:41.847Z,2.27
2023-03-10T12:41:11.362Z,2.73
2023-03-10T12:43:46.080Z,3.07
2023-03-10T12:46:16.362Z,3.00
2023-03-10T12:48:48.006Z,2.23
2023-03-10T12:51:20.361Z,2.50
2023-03-10T12:53:54.148Z,2.63
2023-03-10T12:56:33.045Z,5.43
2023-03-10T12:59:05.225Z,3.33
2023-03-10T13:01:40.560Z,3.90
2023-03-10T13:04:14.208Z,4.17
2023-03-10T13:06:45.223Z,3.70
2023-03-10T13:09:22.279Z,3.57
2023-03-10T13:11:51.703Z,2.93
2023-03-10T13:14:21.718Z,3.37
2023-03-10T13:16:55.702Z,2.60
2023-03-10T13:19:25.287Z,2.87
2023-03-10T13:21:54.625Z,2.60
2023-03-10T13:24:24.369Z,2.23
2023-03-10T13:27:05.079Z,2.23
2023-03-10T13:29:32.805Z,2.40
2023-03-10T13:32:00.460Z,2.50
2023-03-10T13:34:31.477Z,2.67
2023-03-10T13:37:08.001Z,2.63
2023-03-10T13:39:37.344Z,2.27
2023-03-10T13:42:12.524Z,2.60
2023-03-10T13:44:41.695Z,2.50
2023-03-10T13:47:14.335Z,2.77
2023-03-10T13:49:43.598Z,2.27
2023-03-10T13:52:14.735Z,2.43
2023-03-10T13:54:43.217Z,2.00
2023-03-10T13:57:15.556Z,1.77
2023-03-10T13:59:43.554Z,2.10
2023-03-10T14:02:15.166Z,1.30
2023-03-10T14:04:44.751Z,1.47
2023-03-10T14:07:17.021Z,1.23
2023-03-10T14:09:44.884Z,1.20
2023-03-10T14:12:14.167Z,1.30
2023-03-10T14:14:43.036Z,1.20
2023-03-10T14:17:30.309Z,1.40
2023-03-10T14:22:54.820Z,1.20
2023-03-10T14:25:23.342Z,1.07
2023-03-10T14:27:55.412Z,1.30
2023-03-10T14:30:26.070Z,1.13
2023-03-10T14:32:55.016Z,1.00
2023-03-10T14:35:23.909Z,1.10
2023-03-10T14:37:52.535Z,1.00
2023-03-10T14:40:22.974Z,1.27
2023-03-10T14:42:51.391Z,1.63
2023-03-10T14:45:27.703Z,1.20
2023-03-10T14:47:56.920Z,1.23
2023-03-10T14:50:25.592Z,1.30
2023-03-10T14:52:53.603Z,1.20
2023-03-10T14:55:23.303Z,1.27
2023-03-10T14:57:55.990Z,1.73
2023-03-10T15:00:24.826Z,1.30
2023-03-10T15:02:52.544Z,1.80
2023-03-10T15:05:21.391Z,1.57
2023-03-10T15:07:49.727Z,2.43
2023-03-10T15:10:19.260Z,3.40
2023-03-10T15:12:49.444Z,3.77
2023-03-10T15:15:18.359Z,3.13
2023-03-10T15:17:46.098Z,3.67
2023-03-10T15:20:16.682Z,3.63
2023-03-10T15:22:44.571Z,3.60
2023-03-10T15:25:12.960Z,2.70
2023-03-10T15:27:40.825Z,2.53
2023-03-10T15:30:16.430Z,1.93
2023-03-10T15:32:45.547Z,3.00
2023-03-10T15:35:13.646Z,1.23
2023-03-10T15:37:42.126Z,2.17
2023-03-10T15:40:11.237Z,3.47
2023-03-10T15:42:39.937Z,2.60
2023-03-10T15:45:09.423Z,2.80
2023-03-10T15:47:38.756Z,2.50
2023-03-10T15:50:07.135Z,2.27
2023-03-10T15:52:35.709Z,1.80
2023-03-10T15:55:03.879Z,2.00
2023-03-10T15:57:32.339Z,2.90
2023-03-10T16:00:01.271Z,2.53
2023-03-10T16:02:29.242Z,2.83
2023-03-10T16:05:04.767Z,2.80
2023-03-10T16:07:33.374Z,2.10
2023-03-10T16:10:01.638Z,3.10
2023-03-10T16:12:30.063Z,2.43
2023-03-10T16:14:58.220Z,3.07
2023-03-10T16:17:26.459Z,3.27
2023-03-10T16:19:54.400Z,6.07
2023-03-10T16:22:23.556Z,5.77
2023-03-10T16:24:51.519Z,6.93
2023-03-10T16:27:19.363Z,4.77
2023-03-10T16:29:47.188Z,6.07
2023-03-10T16:32:15.166Z,5.80
2023-03-10T16:34:43.349Z,6.43
2023-03-10T16:37:11.165Z,5.73
2023-03-10T16:39:40.339Z,4.47
2023-03-10T16:42:08.630Z,6.73
2023-03-10T16:44:36.388Z,6.47
2023-03-10T16:47:04.354Z,5.53
2023-03-10T16:49:33.328Z,6.93
2023-03-10T16:52:03.262Z,9.37
2023-03-10T16:54:31.042Z,7.30
2023-03-10T16:57:01.778Z,5.20
2023-03-10T16:59:30.276Z,6.57
2023-03-10T17:01:58.115Z,8.57
2023-03-10T17:04:28.248Z,8.73
2023-03-10T17:06:56.102Z,6.83
2023-03-10T17:09:23.858Z,6.10
2023-03-10T17:11:55.381Z,7.27
2023-03-10T17:14:25.256Z,7.70
2023-03-10T17:16:55.208Z,7.23
2023-03-10T17:19:29.062Z,7.90
2023-03-10T17:21:57.777Z,6.57
2023-03-10T17:24:25.575Z,5.47
2023-03-10T17:26:54.923Z,4.77
2023-03-10T17:29:24.330Z,7.60
2023-03-10T17:31:52.360Z,8.17
2023-03-10T17:34:20.769Z,8.97
2023-03-10T17:36:51.260Z,9.50
2023-03-10T17:39:20.450Z,10.53
2023-03-10T17:41:48.457Z,9.70
2023-03-10T17:44:16.453Z,8.97
2023-03-10T17:46:46.126Z,8.27
2023-03-10T17:49:14.720Z,5.87
2023-03-10T17:51:44.572Z,6.27
2023-03-10T17:54:15.329Z,6.67
2023-03-10T17:56:43.339Z,7.53
2023-03-10T17:59:13.835Z,7.20
2023-03-10T18:01:42.336Z,7.77
2023-03-10T18:04:11.866Z,6.93
2023-03-10T18:06:39.910Z,6.20
2023-03-10T18:09:09.167Z,6.73
2023-03-10T18:11:37.546Z,6.97
2023-03-10T18:14:05.446Z,7.10
2023-03-10T18:16:35.567Z,7.50
2023-03-10T18:19:04.230Z,6.07
2023-03-10T18:21:33.598Z,6.83
2023-03-10T18:24:01.745Z,6.73
2023-03-10T18:26:30.896Z,6.60
2023-03-10T18:28:58.682Z,6.23
2023-03-10T18:31:27.790Z,7.93
2023-03-10T18:33:55.718Z,7.00
2023-03-10T18:36:25.109Z,6.33
2023-03-10T18:38:54.816Z,6.40
2023-03-10T18:41:23.440Z,6.00
2023-03-10T18:43:51.721Z,6.37
2023-03-10T18:46:19.856Z,6.27
2023-03-10T18:48:47.750Z,6.53
2023-03-10T18:51:15.991Z,6.60
2023-03-10T18:53:45.309Z,6.80
2023-03-10T18:56:14.425Z,6.30
2023-03-10T18:58:43.222Z,8.37
2023-03-10T19:01:13.617Z,7.13
2023-03-10T19:03:41.452Z,7.37
2023-03-10T19:06:10.877Z,6.90
2023-03-10T19:08:39.225Z,7.57
2023-03-10T19:11:08.256Z,8.17
2023-03-10T19:13:44.452Z,7.60
2023-03-10T19:16:12.668Z,8.23
2023-03-10T19:18:40.947Z,8.33
2023-03-10T19:21:09.898Z,8.00
2023-03-10T19:23:37.775Z,6.57
2023-03-10T19:26:06.413Z,8.40
2023-03-10T19:28:35.196Z,8.00
2023-03-10T19:31:08.772Z,8.83
2023-03-10T19:33:38.341Z,9.63
2023-03-10T19:36:08.952Z,9.70
2023-03-10T19:38:38.637Z,8.33
2023-03-10T19:41:07.086Z,8.87
2023-03-10T19:43:35.984Z,9.80
2023-03-10T19:46:06.670Z,9.10
2023-03-10T19:48:34.573Z,9.07
2023-03-10T19:51:02.569Z,9.27
2023-03-10T19:53:32.429Z,7.90
2023-03-10T19:56:01.239Z,8.63
2023-03-10T19:58:29.028Z,9.63
2023-03-10T20:00:58.307Z,9.80
2023-03-10T20:03:31.005Z,9.90
2023-03-10T20:05:59.022Z,12.17
2023-03-10T20:08:27.176Z,10.67
2023-03-10T20:10:59.330Z,12.20
2023-03-10T20:13:27.284Z,12.47
2023-03-10T20:15:56.309Z,12.83
2023-03-10T20:18:24.557Z,13.70
2023-03-10T20:20:54.952Z,12.87
2023-03-10T20:23:23.275Z,12.70
2023-03-10T20:25:51.433Z,13.50
2023-03-10T20:28:19.407Z,12.33
2023-03-10T20:30:47.936Z,15.47
2023-03-10T20:33:15.692Z,15.73
2023-03-10T20:35:43.763Z,14.60
2023-03-10T20:38:13.910Z,15.13
2023-03-10T20:40:42.081Z,7.07
2023-03-10T20:43:10.724Z,9.37
2023-03-10T20:45:38.560Z,10.63
2023-03-10T20:48:07.144Z,6.57
2023-03-10T20:50:35.407Z,6.70
2023-03-10T20:53:03.642Z,6.90
2023-03-10T20:55:33.534Z,6.80
2023-03-10T20:58:01.735Z,6.87
2023-03-10T21:00:30.696Z,5.70
2023-03-10T21:03:01.311Z,5.30
2023-03-10T21:05:29.412Z,5.57
2023-03-10T21:07:58.158Z,5.87
2023-03-10T21:10:26.896Z,9.03
2023-03-10T21:12:57.040Z,9.37
2023-03-10T21:15:26.689Z,7.50
2023-03-10T21:17:54.647Z,5.83
2023-03-10T21:20:23.550Z,10.93
2023-03-10T21:22:51.751Z,13.50
2023-03-10T21:25:21.138Z,11.53
2023-03-10T21:27:49.657Z,13.07
2023-03-10T21:30:19.091Z,12.67
2023-03-10T21:32:48.029Z,6.53
2023-03-10T21:35:16.074Z,4.10
2023-03-10T21:37:46.956Z,4.20
2023-03-10T21:40:18.132Z,3.80
2023-03-10T21:42:46.141Z,3.43
2023-03-10T21:45:16.669Z,3.83
2023-03-10T21:47:47.153Z,3.90
2023-03-10T21:50:15.285Z,3.63
2023-03-10T21:52:43.563Z,3.60
2023-03-10T21:55:15.913Z,3.43
2023-03-10T21:57:43.742Z,3.10
2023-03-10T22:00:13.191Z,3.60
2023-03-10T22:02:41.202Z,5.00
2023-03-10T22:05:13.175Z,7.10
2023-03-10T22:07:41.322Z,8.27
2023-03-10T22:10:09.914Z,9.90
2023-03-10T22:12:38.078Z,11.33
2023-03-10T22:15:07.056Z,8.03
2023-03-10T22:17:35.192Z,10.73
2023-03-10T22:20:07.308Z,10.10
2023-03-10T22:22:36.645Z,11.23
2023-03-10T22:25:04.859Z,9.43
2023-03-10T22:27:32.695Z,11.03
2023-03-10T22:30:01.741Z,9.37
2023-03-10T22:32:29.720Z,10.77
2023-03-10T22:34:57.640Z,11.47
2023-03-10T22:37:25.871Z,11.43
2023-03-10T22:39:54.992Z,13.27
2023-03-10T22:42:23.141Z,12.43
2023-03-10T22:44:51.563Z,12.90
2023-03-10T22:47:19.522Z,11.43
2023-03-10T22:49:47.857Z,10.70
2023-03-10T22:52:15.774Z,9.57
2023-03-10T22:54:43.635Z,8.50
2023-03-10T22:57:15.348Z,8.23
2023-03-10T22:59:43.502Z,8.60
2023-03-10T23:02:11.606Z,8.03
2023-03-10T23:04:39.856Z,9.00
2023-03-10T23:07:07.616Z,10.87
2023-03-10T23:09:35.324Z,9.23
2023-03-10T23:12:03.325Z,13.13
2023-03-10T23:14:33.721Z,11.77
2023-03-10T23:17:01.484Z,13.30
2023-03-10T23:19:30.010Z,12.43
2023-03-10T23:21:57.939Z,10.50
2023-03-10T23:24:25.801Z,10.87
2023-03-10T23:26:53.989Z,12.37
2023-03-10T23:29:22.033Z,12.67
2023-03-10T23:31:51.224Z,13.17
2023-03-10T23:34:19.234Z,11.80
2023-03-10T23:36:47.023Z,11.63
2023-03-10T23:39:14.781Z,11.80
2023-03-10T23:41:42.752Z,11.77
2023-03-10T23:44:10.930Z,11.40
2023-03-10T23:46:38.951Z,11.77
2023-03-10T23:49:08.926Z,12.57
2023-03-10T23:51:38.062Z,12.87
2023-03-10T23:54:06.102Z,14.73
2023-03-10T23:56:34.168Z,14.67
2023-03-10T23:59:02.324Z,13.63
